Time;durP1;ratioP1;P1;durP2;ratioP2;P2;SDS_P1;SDS_P2;PMS_P1;PMS_P2;Temp;Humidity;BMP_temperature;BMP_pressure;BME280_temperature;BME280_humidity;BME280_pressure;Samples;Min_cycle;Max_cycle;Signal;HPM_P1;HPM_P2
2023/08/13 00:01:12;;;;;;;0.30;0.30;;;16.10;99.90;;;;;;5121309;27;20047;-75
2023/08/13 00:03:37;;;;;;;;;;;16.10;99.90;;;;;;5122790;27;20055;-74
2023/08/13 00:06:03;;;;;;;0.28;0.28;;;16.00;99.90;;;;;;5117641;28;19923;-74
2023/08/13 00:08:29;;;;;;;;;;;16.00;99.90;;;;;;5124667;28;20055;-75
2023/08/13 00:10:55;;;;;;;0.80;0.80;;;16.10;99.90;;;;;;5114029;28;20374;-76
2023/08/13 00:13:20;;;;;;;;;;;16.00;99.90;;;;;;5117658;28;20074;-74
2023/08/13 00:15:46;;;;;;;0.30;0.30;;;15.90;99.90;;;;;;5121702;28;19930;-75
2023/08/13 00:18:11;;;;;;;0.80;0.80;;;15.90;99.90;;;;;;5116536;28;20050;-74
2023/08/13 00:20:37;;;;;;;;;;;15.90;99.90;;;;;;5126259;28;20827;-74
2023/08/13 00:23:03;;;;;;;0.28;0.28;;;15.90;99.90;;;;;;5118678;28;19924;-74
2023/08/13 00:25:28;;;;;;;0.38;0.38;;;15.80;99.90;;;;;;5125522;28;20051;-74
2023/08/13 00:27:54;;;;;;;;;;;15.80;99.90;;;;;;5125799;28;20059;-74
2023/08/13 00:30:20;;;;;;;0.20;0.20;;;15.90;99.90;;;;;;5123137;28;19923;-74
2023/08/13 00:32:45;;;;;;;;;;;15.80;99.90;;;;;;5122061;28;20067;-75
2023/08/13 00:35:11;;;;;;;1.65;1.48;;;15.80;99.90;;;;;;5118760;28;19924;-74
2023/08/13 00:37:37;;;;;;;0.40;0.40;;;15.70;99.90;;;;;;5121948;28;20050;-74
2023/08/13 00:40:04;;;;;;;0.40;0.40;;;15.60;99.90;;;;;;5124532;28;20497;-74
2023/08/13 00:42:30;;;;;;;0.20;0.20;;;15.60;99.90;;;;;;5121187;28;20568;-75
2023/08/13 00:44:55;;;;;;;0.30;0.30;;;15.50;99.90;;;;;;5122483;28;20053;-75
2023/08/13 00:47:21;;;;;;;;;;;15.50;99.90;;;;;;5122879;27;20079;-75
2023/08/13 00:49:49;;;;;;;0.95;0.52;;;15.50;99.90;;;;;;5123959;28;19920;-75
2023/08/13 00:52:15;;;;;;;0.52;0.52;;;15.50;99.90;;;;;;5124208;27;20287;-74
2023/08/13 00:54:41;;;;;;;0.50;0.50;;;15.50;99.90;;;;;;5127858;27;20500;-74
2023/08/13 00:57:08;;;;;;;0.65;0.65;;;15.50;99.90;;;;;;5121830;27;20089;-75
2023/08/13 00:59:34;;;;;;;1.00;1.00;;;15.50;99.90;;;;;;5120690;27;20786;-74
2023/08/13 01:02:00;;;;;;;0.30;0.30;;;15.50;99.90;;;;;;5116636;27;20042;-74
2023/08/13 01:04:26;;;;;;;0.30;0.30;;;15.50;99.90;;;;;;5128145;27;20068;-75
2023/08/13 01:07:11;;;;;;;0.60;0.60;;;15.40;99.90;;;;;;5125839;27;20090;-75
2023/08/13 01:09:50;;;;;;;0.52;0.52;;;15.40;99.90;;;;;;5129896;27;20058;-74
2023/08/13 01:12:31;;;;;;;0.60;0.60;;;15.40;99.90;;;;;;5125568;27;20049;-74
2023/08/13 01:15:30;;;;;;;0.93;0.93;;;15.40;99.90;;;;;;5141664;27;20515;-76
2023/08/13 01:17:57;;;;;;;0.30;0.30;;;15.40;99.90;;;;;;5119510;27;20066;-74
2023/08/13 01:20:35;;;;;;;0.43;0.43;;;16.30;99.90;;;;;;5122844;27;20035;-74
2023/08/13 01:23:00;;;;;;;0.70;0.70;;;15.40;99.90;;;;;;5126797;27;20070;-76
2023/08/13 01:25:27;;;;;;;0.40;0.40;;;15.50;99.90;;;;;;5124262;27;20090;-75
2023/08/13 01:28:38;;;;;;;0.82;0.82;;;15.40;99.90;;;;;;5124210;27;20039;-75
2023/08/13 01:31:24;;;;;;;0.30;0.30;;;15.40;99.90;;;;;;5062529;28;20401;-74
2023/08/13 01:33:50;;;;;;;0.30;0.30;;;15.40;99.90;;;;;;5126963;27;20565;-74
2023/08/13 01:36:17;;;;;;;0.30;0.30;;;15.40;99.90;;;;;;5121467;27;20042;-74
2023/08/13 01:38:45;;;;;;;0.35;0.35;;;15.40;99.90;;;;;;5128171;27;20051;-75
2023/08/13 01:41:11;;;;;;;0.30;0.30;;;15.30;99.90;;;;;;5121773;27;20618;-74
2023/08/13 01:43:36;;;;;;;0.60;0.60;;;15.30;99.90;;;;;;5123089;27;20039;-75
2023/08/13 01:46:02;;;;;;;;;;;15.30;99.90;;;;;;5126166;27;21106;-75
2023/08/13 01:48:28;;;;;;;0.55;0.55;;;15.30;99.90;;;;;;5127833;27;19930;-75
2023/08/13 01:50:54;;;;;;;;;;;15.30;99.90;;;;;;5128709;27;20043;-75
2023/08/13 01:53:19;;;;;;;0.30;0.30;;;15.30;99.90;;;;;;5125197;27;20094;-76
2023/08/13 01:55:45;;;;;;;;;;;15.30;99.90;;;;;;5126030;27;20050;-75
2023/08/13 01:58:11;;;;;;;0.35;0.35;;;15.20;99.90;;;;;;5128514;27;19919;-75
2023/08/13 02:00:36;;;;;;;;;;;15.20;99.90;;;;;;5119603;27;20603;-76
2023/08/13 02:03:02;;;;;;;0.32;0.32;;;15.20;99.90;;;;;;5124610;27;19923;-75
2023/08/13 02:05:28;;;;;;;;;;;15.20;99.90;;;;;;5123019;27;20169;-74
2023/08/13 02:07:54;;;;;;;0.38;0.38;;;15.20;99.90;;;;;;5126541;27;19930;-74
2023/08/13 02:10:19;;;;;;;0.40;0.40;;;15.20;99.90;;;;;;5127435;27;20437;-75
2023/08/13 02:12:45;;;;;;;0.52;0.52;;;15.20;99.90;;;;;;5125366;27;20047;-75
2023/08/13 02:15:10;;;;;;;;;;;15.20;99.90;;;;;;5117606;27;20047;-74
2023/08/13 02:17:36;;;;;;;0.40;0.40;;;15.20;99.90;;;;;;5126130;27;20432;-75
2023/08/13 02:20:02;;;;;;;0.45;0.45;;;15.10;99.90;;;;;;5124136;27;20062;-75
2023/08/13 02:22:28;;;;;;;0.35;0.35;;;15.10;99.90;;;;;;5126167;27;20050;-75
2023/08/13 02:24:54;;;;;;;0.30;0.30;;;15.10;99.90;;;;;;5128818;27;20039;-75
2023/08/13 02:27:19;;;;;;;;;;;15.10;99.90;;;;;;5127305;27;20333;-75
2023/08/13 02:29:45;;;;;;;0.30;0.30;;;15.10;99.90;;;;;;5129349;27;19934;-75
2023/08/13 02:32:10;;;;;;;;;;;15.10;99.90;;;;;;5126880;27;20181;-74
2023/08/13 02:34:46;;;;;;;0.30;0.30;;;15.20;99.90;;;;;;5124939;27;19965;-74
2023/08/13 02:37:12;;;;;;;0.38;0.38;;;15.20;99.90;;;;;;5125307;27;20051;-75
2023/08/13 02:39:38;;;;;;;0.63;0.43;;;15.10;99.90;;;;;;5127674;27;20175;-74
2023/08/13 02:42:04;;;;;;;0.40;0.40;;;15.10;99.90;;;;;;5128828;27;20148;-75
2023/08/13 02:44:29;;;;;;;;;;;15.10;99.90;;;;;;5126930;27;20077;-75
2023/08/13 02:46:55;;;;;;;0.32;0.32;;;15.10;99.90;;;;;;5127076;27;19981;-74
2023/08/13 02:49:20;;;;;;;;;;;15.10;99.90;;;;;;5128873;27;20134;-75
2023/08/13 02:51:46;;;;;;;0.10;0.10;;;15.00;99.90;;;;;;5125747;27;20319;-75
2023/08/13 02:54:12;;;;;;;1.55;0.77;;;15.00;99.90;;;;;;5114711;27;20122;-75
2023/08/13 02:56:37;;;;;;;;;;;15.00;99.90;;;;;;5127263;27;20062;-74
2023/08/13 02:59:03;;;;;;;0.63;0.63;;;15.00;99.90;;;;;;5120539;27;19924;-75
2023/08/13 03:01:29;;;;;;;;;;;15.00;99.90;;;;;;5124053;27;20078;-75
2023/08/13 03:03:55;;;;;;;0.40;0.40;;;15.00;99.90;;;;;;5128485;27;20334;-75
2023/08/13 03:06:22;;;;;;;;;;;15.00;99.90;;;;;;5121075;27;20134;-75
2023/08/13 03:08:47;;;;;;;0.30;0.30;;;15.00;99.90;;;;;;5125945;27;20038;-75
2023/08/13 03:11:13;;;;;;;;;;;15.00;99.90;;;;;;5120313;27;20114;-75
2023/08/13 03:13:39;;;;;;;0.43;0.43;;;15.00;99.90;;;;;;5127946;27;20270;-75
2023/08/13 03:16:05;;;;;;;0.20;0.20;;;14.90;99.90;;;;;;5126695;27;20055;-74
2023/08/13 03:18:31;;;;;;;3.03;1.40;;;14.80;99.90;;;;;;5121959;27;20055;-74
2023/08/13 03:20:56;;;;;;;0.30;0.30;;;14.80;99.90;;;;;;5126402;27;20084;-74
2023/08/13 03:23:22;;;;;;;;;;;14.80;99.90;;;;;;5126395;27;20401;-75
2023/08/13 03:25:48;;;;;;;0.50;0.50;;;14.80;99.90;;;;;;5126677;27;19923;-74
2023/08/13 03:28:13;;;;;;;0.57;0.57;;;14.70;99.90;;;;;;5127318;27;20039;-76
2023/08/13 03:30:39;;;;;;;0.43;0.43;;;14.80;99.90;;;;;;5122529;27;20091;-74
2023/08/13 03:33:05;;;;;;;;;;;14.80;99.90;;;;;;5124438;27;20090;-74
2023/08/13 03:35:35;;;;;;;0.50;0.50;;;14.80;99.90;;;;;;5120053;27;20731;-75
2023/08/13 03:38:00;;;;;;;0.20;0.20;;;14.70;99.90;;;;;;5123945;27;20054;-74
2023/08/13 03:40:26;;;;;;;0.40;0.40;;;14.70;99.90;;;;;;5127111;27;20042;-74
2023/08/13 03:42:52;;;;;;;0.30;0.30;;;14.70;99.90;;;;;;5120815;27;20126;-74
2023/08/13 03:45:17;;;;;;;0.28;0.28;;;14.70;99.90;;;;;;5121306;27;20082;-75
2023/08/13 03:47:43;;;;;;;0.40;0.40;;;14.70;99.90;;;;;;5122965;27;20067;-74
2023/08/13 03:50:08;;;;;;;;;;;14.70;99.90;;;;;;5125829;27;20043;-74
2023/08/13 03:52:34;;;;;;;0.40;0.40;;;15.50;99.90;;;;;;5125558;27;19927;-74
2023/08/13 03:55:00;;;;;;;0.68;0.68;;;14.80;99.90;;;;;;5124990;27;20123;-75
2023/08/13 03:57:25;;;;;;;0.40;0.40;;;14.80;99.90;;;;;;5124668;27;20133;-75
2023/08/13 03:59:51;;;;;;;0.30;0.30;;;14.90;99.90;;;;;;5126782;27;20049;-74
2023/08/13 04:02:17;;;;;;;;;;;14.90;99.90;;;;;;5124399;27;20500;-74
2023/08/13 04:04:42;;;;;;;0.32;0.32;;;14.90;99.90;;;;;;5121725;27;20019;-74
2023/08/13 04:07:08;;;;;;;;;;;14.90;99.90;;;;;;5125009;28;20063;-75
2023/08/13 04:09:34;;;;;;;0.25;0.25;;;14.90;99.90;;;;;;5120526;27;20878;-74
2023/08/13 04:11:59;;;;;;;;;;;14.90;99.90;;;;;;5118036;28;20118;-74
2023/08/13 04:14:25;;;;;;;1.90;1.23;;;14.80;99.90;;;;;;5125208;28;20742;-75
2023/08/13 04:16:50;;;;;;;;;;;14.90;99.90;;;;;;5143596;27;20084;-74
2023/08/13 04:19:16;;;;;;;2.10;1.15;;;14.90;99.90;;;;;;5124850;28;19919;-75
2023/08/13 04:21:42;;;;;;;0.35;0.35;;;15.00;99.90;;;;;;5120808;28;20119;-74
2023/08/13 04:24:08;;;;;;;1.20;1.20;;;15.00;99.90;;;;;;5123910;28;20050;-75
2023/08/13 04:26:33;;;;;;;0.20;0.20;;;15.10;99.90;;;;;;5124214;27;20071;-75
2023/08/13 04:28:59;;;;;;;;;;;15.10;99.90;;;;;;5130457;27;20434;-74
2023/08/13 04:31:24;;;;;;;0.40;0.40;;;15.20;99.90;;;;;;5124212;27;19923;-75
2023/08/13 04:33:50;;;;;;;0.35;0.35;;;15.30;99.90;;;;;;5127311;27;20105;-75
2023/08/13 04:36:16;;;;;;;0.28;0.28;;;15.40;99.90;;;;;;5129830;27;20756;-74
2023/08/13 04:38:41;;;;;;;0.20;0.20;;;15.40;99.90;;;;;;5120352;27;20051;-74
2023/08/13 04:41:07;;;;;;;;;;;15.50;99.90;;;;;;5129971;27;20108;-74
2023/08/13 04:43:33;;;;;;;0.30;0.30;;;15.50;99.90;;;;;;5128878;27;19923;-74
2023/08/13 04:45:58;;;;;;;;;;;15.60;99.90;;;;;;5123477;27;20538;-74
2023/08/13 04:48:40;;;;;;;1.38;1.27;;;15.60;99.90;;;;;;5128153;27;19945;-75
2023/08/13 04:51:06;;;;;;;0.80;0.80;;;15.70;99.90;;;;;;5124246;27;20075;-75
2023/08/13 04:53:31;;;;;;;3.35;0.85;;;15.70;99.90;;;;;;5128556;27;20078;-75
2023/08/13 04:55:57;;;;;;;;;;;15.70;99.90;;;;;;5128175;27;20038;-75
2023/08/13 04:58:22;;;;;;;0.30;0.30;;;15.80;99.90;;;;;;5125057;27;19923;-74
2023/08/13 05:00:48;;;;;;;0.30;0.30;;;15.80;99.90;;;;;;5126977;27;20051;-75
2023/08/13 05:03:13;;;;;;;;;;;15.80;99.90;;;;;;5131371;27;20644;-74
2023/08/13 05:05:39;;;;;;;0.82;0.82;;;15.90;99.90;;;;;;5124713;27;20836;-74
2023/08/13 05:08:05;;;;;;;0.17;0.17;;;16.00;99.90;;;;;;5127527;27;20393;-74
2023/08/13 05:10:32;;;;;;;0.30;0.30;;;16.00;99.90;;;;;;5127436;27;20127;-75
2023/08/13 05:12:58;;;;;;;0.30;0.30;;;16.00;99.90;;;;;;5125596;27;20575;-75
2023/08/13 05:15:24;;;;;;;0.40;0.40;;;16.10;99.90;;;;;;5128109;27;20114;-76
2023/08/13 05:17:50;;;;;;;;;;;16.20;99.90;;;;;;5120763;27;20163;-75
2023/08/13 05:20:15;;;;;;;1.65;0.75;;;16.20;99.90;;;;;;5128144;27;19923;-74
2023/08/13 05:22:41;;;;;;;;;;;16.30;99.90;;;;;;5129763;27;20050;-74
2023/08/13 05:25:07;;;;;;;0.50;0.50;;;16.40;99.90;;;;;;5116257;27;20277;-74
2023/08/13 05:27:33;;;;;;;0.28;0.28;;;16.50;99.90;;;;;;5126822;27;20047;-74
2023/08/13 05:29:59;;;;;;;;;;;16.60;99.90;;;;;;5119708;27;20048;-75
2023/08/13 05:32:25;;;;;;;0.35;0.35;;;16.60;99.90;;;;;;5124758;27;19927;-75
2023/08/13 05:34:51;;;;;;;0.45;0.45;;;16.60;99.90;;;;;;5128487;27;20054;-75
2023/08/13 05:37:16;;;;;;;0.20;0.20;;;16.70;99.90;;;;;;5123088;27;20031;-75
2023/08/13 05:39:42;;;;;;;;;;;16.70;99.90;;;;;;5127928;27;20034;-75
2023/08/13 05:42:08;;;;;;;0.30;0.30;;;16.70;99.90;;;;;;5124881;27;19923;-75
2023/08/13 05:44:33;;;;;;;0.30;0.30;;;16.60;99.90;;;;;;5124067;27;20050;-75
2023/08/13 05:46:59;;;;;;;;;;;16.70;99.90;;;;;;5126426;27;20050;-75
2023/08/13 05:49:25;;;;;;;1.55;0.75;;;16.60;99.90;;;;;;5125020;27;19928;-75
2023/08/13 05:51:50;;;;;;;;;;;16.70;99.90;;;;;;5125337;27;20039;-75
2023/08/13 05:54:16;;;;;;;0.80;0.35;;;16.70;99.90;;;;;;5125053;27;19919;-75
2023/08/13 05:56:41;;;;;;;;;;;16.70;99.90;;;;;;5119624;27;20108;-75
2023/08/13 05:59:07;;;;;;;0.38;0.38;;;16.70;99.90;;;;;;5124976;27;19919;-75
2023/08/13 06:01:33;;;;;;;;;;;16.70;99.90;;;;;;5125888;27;20051;-75
2023/08/13 06:03:59;;;;;;;0.20;0.20;;;16.70;99.90;;;;;;5123363;27;19924;-74
2023/08/13 06:06:25;;;;;;;0.30;0.30;;;16.70;99.90;;;;;;5125504;27;20051;-77
2023/08/13 06:08:51;;;;;;;0.30;0.30;;;16.70;99.90;;;;;;5123533;27;20056;-74
2023/08/13 06:11:17;;;;;;;;;;;16.70;99.90;;;;;;5123702;27;20691;-74
2023/08/13 06:13:42;;;;;;;1.38;1.25;;;16.60;99.90;;;;;;5127065;27;19919;-75
2023/08/13 06:16:08;;;;;;;;;;;16.60;99.90;;;;;;5125083;27;20449;-74
2023/08/13 06:18:37;;;;;;;0.32;0.32;;;16.60;99.90;;;;;;5118243;27;19924;-75
2023/08/13 06:21:03;;;;;;;0.85;0.85;;;16.60;99.90;;;;;;5124460;27;20043;-75
2023/08/13 06:23:30;;;;;;;0.38;0.38;;;16.50;99.90;;;;;;5125729;27;20080;-75
2023/08/13 06:25:55;;;;;;;0.30;0.30;;;16.50;99.90;;;;;;5120794;27;20501;-74
2023/08/13 06:28:22;;;;;;;0.20;0.20;;;16.50;99.90;;;;;;5121023;27;20050;-74
2023/08/13 06:30:48;;;;;;;0.20;0.20;;;16.50;99.90;;;;;;5118409;27;20043;-75
2023/08/13 06:33:13;;;;;;;;;;;16.60;99.90;;;;;;5124953;27;20068;-75
2023/08/13 06:35:46;;;;;;;0.50;0.50;;;16.60;99.90;;;;;;5117178;27;19924;-76
2023/08/13 06:38:13;;;;;;;0.15;0.15;;;16.80;99.90;;;;;;5118800;27;20412;-75
2023/08/13 06:40:38;;;;;;;0.20;0.20;;;16.90;99.90;;;;;;5118186;27;20074;-75
2023/08/13 06:43:04;;;;;;;;;;;17.10;99.90;;;;;;5123557;27;20074;-74
2023/08/13 06:45:30;;;;;;;0.45;0.45;;;17.20;99.90;;;;;;5123650;27;19919;-75
2023/08/13 06:47:57;;;;;;;;;;;17.30;99.90;;;;;;5127760;27;20080;-75
2023/08/13 06:50:23;;;;;;;0.50;0.50;;;17.50;99.90;;;;;;5122118;27;19930;-74
2023/08/13 06:52:48;;;;;;;;;;;17.60;99.90;;;;;;5119226;27;20035;-75
2023/08/13 06:55:14;;;;;;;0.65;0.65;;;17.80;99.90;;;;;;5125305;27;20290;-75
2023/08/13 06:57:39;;;;;;;;;;;17.80;99.90;;;;;;5124799;27;20046;-75
2023/08/13 07:00:06;;;;;;;0.20;0.20;;;17.60;99.90;;;;;;5123736;27;20274;-75
2023/08/13 07:02:32;;;;;;;0.52;0.35;;;17.50;99.90;;;;;;5132157;27;20375;-76
2023/08/13 07:04:57;;;;;;;;;;;17.40;99.90;;;;;;5118162;27;20050;-75
2023/08/13 07:07:23;;;;;;;22.13;1.15;;;17.50;99.90;;;;;;5108791;27;19939;-75
2023/08/13 07:09:49;;;;;;;;;;;17.50;99.90;;;;;;5124709;27;20486;-75
2023/08/13 07:12:14;;;;;;;0.30;0.30;;;17.60;99.90;;;;;;5119683;27;19976;-75
2023/08/13 07:14:40;;;;;;;;;;;17.80;99.90;;;;;;5132941;27;20051;-75
2023/08/13 07:17:06;;;;;;;1.27;0.90;;;17.90;99.90;;;;;;5121333;27;19962;-74
2023/08/13 07:19:32;;;;;;;;;;;18.10;99.90;;;;;;5125184;27;20093;-75
2023/08/13 07:21:58;;;;;;;0.28;0.28;;;18.40;99.90;;;;;;5124399;27;19923;-75
2023/08/13 07:24:24;;;;;;;;;;;18.20;99.90;;;;;;5127915;27;20084;-74
2023/08/13 07:26:49;;;;;;;0.50;0.50;;;18.30;99.90;;;;;;5123250;27;19919;-75
2023/08/13 07:29:15;;;;;;;;;;;18.40;99.90;;;;;;5120060;27;20093;-74
2023/08/13 07:31:41;;;;;;;0.50;0.50;;;18.70;99.90;;;;;;5127141;27;19927;-74
2023/08/13 07:34:06;;;;;;;;;;;18.90;99.90;;;;;;5128042;27;20075;-75
2023/08/13 07:36:32;;;;;;;2.63;0.45;;;19.40;99.90;;;;;;5127696;27;20612;-76
2023/08/13 07:38:58;;;;;;;;;;;18.80;99.90;;;;;;5122933;27;20087;-75
2023/08/13 07:41:23;;;;;;;2.65;1.55;;;18.70;99.90;;;;;;5122536;27;22069;-75
2023/08/13 07:43:49;;;;;;;;;;;18.80;99.90;;;;;;5117591;27;20039;-75
2023/08/13 07:46:15;;;;;;;1.05;1.05;;;19.00;99.90;;;;;;5122245;27;19923;-75
2023/08/13 07:48:41;;;;;;;;;;;18.70;99.90;;;;;;5118578;27;20766;-75
2023/08/13 07:51:07;;;;;;;0.80;0.80;;;18.80;99.90;;;;;;5118605;27;20031;-75
2023/08/13 07:53:32;;;;;;;;;;;18.80;99.90;;;;;;5123165;27;20429;-75
2023/08/13 07:55:58;;;;;;;0.22;0.22;;;18.70;99.90;;;;;;5119787;27;19931;-75
2023/08/13 07:58:23;;;;;;;;;;;19.20;99.90;;;;;;5124122;27;20089;-75
2023/08/13 08:00:49;;;;;;;0.38;0.38;;;19.20;99.90;;;;;;5120126;27;19923;-75
2023/08/13 08:03:15;;;;;;;;;;;19.30;99.90;;;;;;5121761;27;20063;-76
2023/08/13 08:05:47;;;;;;;0.32;0.32;;;19.30;99.90;;;;;;5125722;27;19926;-75
2023/08/13 08:08:13;;;;;;;0.38;0.38;;;19.50;99.90;;;;;;5119269;27;20083;-75
2023/08/13 08:10:39;;;;;;;0.20;0.20;;;19.60;99.90;;;;;;5121804;27;20130;-74
2023/08/13 08:13:05;;;;;;;1.48;0.90;;;19.70;99.90;;;;;;5118288;27;20130;-75
2023/08/13 08:15:30;;;;;;;;;;;19.90;99.90;;;;;;5130965;27;20050;-75
2023/08/13 08:17:56;;;;;;;1.95;1.85;;;20.10;99.90;;;;;;5125030;27;19920;-75
2023/08/13 08:20:22;;;;;;;;;;;20.20;99.90;;;;;;5115803;27;20039;-75
2023/08/13 08:22:48;;;;;;;0.30;0.30;;;20.30;99.90;;;;;;5119434;27;19973;-75
2023/08/13 08:25:14;;;;;;;0.32;0.32;;;20.10;99.90;;;;;;5125440;28;20039;-74
2023/08/13 08:27:39;;;;;;;;;;;20.00;99.90;;;;;;5126639;28;20054;-75
2023/08/13 08:30:05;;;;;;;0.63;0.63;;;19.90;99.90;;;;;;5126756;28;19934;-76
2023/08/13 08:32:31;;;;;;;0.30;0.30;;;19.80;99.90;;;;;;5117620;27;20063;-75
2023/08/13 08:34:57;;;;;;;0.60;0.60;;;19.80;99.90;;;;;;5122847;28;20074;-75
2023/08/13 08:37:23;;;;;;;;;;;19.80;99.90;;;;;;5124691;28;20758;-75
2023/08/13 08:39:48;;;;;;;1.05;0.85;;;19.90;99.90;;;;;;5127296;28;19924;-75
2023/08/13 08:42:14;;;;;;;0.40;0.40;;;20.10;99.90;;;;;;5124142;27;20054;-76
2023/08/13 08:44:42;;;;;;;;;;;20.10;99.90;;;;;;5125660;28;20047;-76
2023/08/13 08:47:08;;;;;;;0.47;0.47;;;20.00;99.90;;;;;;5127245;28;19923;-76
2023/08/13 08:49:35;;;;;;;0.30;0.30;;;19.90;99.90;;;;;;5120891;28;20055;-75
2023/08/13 08:52:01;;;;;;;0.40;0.40;;;20.00;99.90;;;;;;5131859;27;20168;-75
2023/08/13 08:54:26;;;;;;;0.63;0.63;;;20.00;99.90;;;;;;5121197;28;20122;-75
2023/08/13 08:56:52;;;;;;;;;;;20.10;99.90;;;;;;5122797;28;20054;-75
2023/08/13 08:59:18;;;;;;;0.40;0.40;;;20.30;99.90;;;;;;5123994;28;20299;-76
2023/08/13 09:01:44;;;;;;;0.25;0.25;;;20.50;99.90;;;;;;5118378;27;20118;-76
2023/08/13 09:04:10;;;;;;;0.30;0.30;;;20.80;99.90;;;;;;5127418;28;20180;-75
2023/08/13 09:07:02;;;;;;;0.30;0.30;;;21.20;99.90;;;;;;5125054;28;20798;-75
2023/08/13 09:09:29;;;;;;;0.30;0.30;;;21.60;99.90;;;;;;5123613;27;20109;-76
2023/08/13 09:11:56;;;;;;;0.30;0.30;;;21.80;99.90;;;;;;5127030;28;20487;-74
2023/08/13 09:14:23;;;;;;;0.80;0.73;;;21.90;99.90;;;;;;5127061;27;20062;-74
2023/08/13 09:16:50;;;;;;;0.30;0.30;;;21.80;99.90;;;;;;5128875;27;20080;-74
2023/08/13 09:19:17;;;;;;;0.20;0.20;;;21.70;99.90;;;;;;5126612;27;20043;-75
2023/08/13 09:21:58;;;;;;;0.28;0.28;;;21.90;99.90;;;;;;5129424;27;20560;-75
2023/08/13 09:24:37;;;;;;;0.20;0.20;;;22.10;99.90;;;;;;5127148;27;20043;-76
2023/08/13 09:27:06;;;;;;;0.30;0.30;;;22.40;99.90;;;;;;5124347;27;20949;-75
2023/08/13 09:29:32;;;;;;;0.40;0.40;;;22.60;99.90;;;;;;5126922;27;20051;-74
2023/08/13 09:31:59;;;;;;;0.28;0.28;;;23.10;99.90;;;;;;5123723;27;20047;-75
2023/08/13 09:34:26;;;;;;;0.63;0.63;;;23.10;99.90;;;;;;5127908;27;20437;-75
2023/08/13 09:36:53;;;;;;;0.30;0.30;;;23.30;99.90;;;;;;5124408;27;20486;-75
2023/08/13 09:39:20;;;;;;;3.15;0.57;;;23.20;99.90;;;;;;5129152;27;20047;-74
2023/08/13 09:41:48;;;;;;;0.38;0.38;;;22.50;99.90;;;;;;5127453;27;20114;-75
2023/08/13 09:44:15;;;;;;;0.40;0.40;;;22.70;99.90;;;;;;5127122;27;20073;-75
2023/08/13 09:46:41;;;;;;;0.47;0.47;;;22.50;99.90;;;;;;5125027;27;20489;-76
2023/08/13 09:49:09;;;;;;;0.50;0.50;;;22.90;99.90;;;;;;5127176;27;20058;-76
2023/08/13 09:51:39;;;;;;;0.50;0.50;;;22.70;99.90;;;;;;5129420;27;20047;-75
2023/08/13 09:54:14;;;;;;;0.50;0.50;;;22.70;99.90;;;;;;5126716;27;20030;-75
2023/08/13 09:56:49;;;;;;;0.43;0.40;;;22.50;99.90;;;;;;5127772;27;20080;-74
2023/08/13 09:59:15;;;;;;;0.60;0.60;;;22.40;99.90;;;;;;5127919;27;20096;-75
2023/08/13 10:01:42;;;;;;;0.20;0.20;;;22.50;99.90;;;;;;5129103;27;20051;-74
2023/08/13 10:04:08;;;;;;;0.20;0.20;;;22.50;99.90;;;;;;5128680;27;20093;-73
2023/08/13 10:06:35;;;;;;;0.50;0.50;;;22.50;99.90;;;;;;5128505;27;20050;-74
2023/08/13 10:09:01;;;;;;;0.30;0.30;;;22.50;99.90;;;;;;5126922;27;20112;-75
2023/08/13 10:11:27;;;;;;;0.45;0.45;;;22.60;99.90;;;;;;5129636;27;20473;-75
2023/08/13 10:13:52;;;;;;;0.32;0.32;;;22.70;99.90;;;;;;5124781;27;20397;-75
2023/08/13 10:16:20;;;;;;;0.80;0.57;;;22.70;99.90;;;;;;5126379;27;20039;-75
2023/08/13 10:18:46;;;;;;;0.30;0.30;;;22.60;99.90;;;;;;5129690;27;20101;-75
2023/08/13 10:21:14;;;;;;;0.30;0.30;;;22.50;99.90;;;;;;5124158;27;20050;-75
2023/08/13 10:23:40;;;;;;;0.20;0.20;;;22.50;99.90;;;;;;5124680;27;20043;-75
2023/08/13 10:26:07;;;;;;;0.30;0.30;;;22.60;99.90;;;;;;5126620;27;20416;-75
2023/08/13 10:28:33;;;;;;;0.20;0.20;;;22.80;99.90;;;;;;5127626;27;20051;-75
2023/08/13 10:31:35;;;;;;;0.20;0.20;;;23.20;99.90;;;;;;5123954;27;20066;-75
2023/08/13 10:34:10;;;;;;;4.15;1.33;;;23.30;99.90;;;;;;5081690;28;20048;-76
2023/08/13 10:36:52;;;;;;;0.10;0.10;;;23.10;99.90;;;;;;5113588;27;20519;-75
2023/08/13 10:39:40;;;;;;;0.20;0.20;;;22.90;99.90;;;;;;5125819;27;20565;-75
2023/08/13 10:42:33;;;;;;;8.75;0.95;;;22.80;99.90;;;;;;5125773;27;20100;-75
2023/08/13 10:45:04;;;;;;;0.20;0.20;;;23.00;99.90;;;;;;5120836;27;20075;-75
2023/08/13 10:47:46;;;;;;;0.20;0.20;;;23.10;99.90;;;;;;5124942;27;20043;-75
2023/08/13 10:50:32;;;;;;;0.40;0.40;;;23.40;99.90;;;;;;5129328;27;20043;-75
2023/08/13 10:53:07;;;;;;;0.30;0.30;;;23.00;99.90;;;;;;5122635;27;20143;-76
2023/08/13 10:55:39;;;;;;;0.20;0.20;;;23.20;99.90;;;;;;5124716;27;20083;-75
2023/08/13 10:58:05;;;;;;;0.20;0.20;;;22.70;99.90;;;;;;5127219;27;20041;-75
2023/08/13 11:00:43;;;;;;;0.52;0.52;;;22.70;99.90;;;;;;5125277;27;20183;-76
2023/08/13 11:03:23;;;;;;;0.20;0.20;;;22.80;99.90;;;;;;5125647;27;20043;-76
2023/08/13 11:05:51;;;;;;;0.28;0.28;;;22.90;99.90;;;;;;5127275;27;20253;-76
2023/08/13 11:08:22;;;;;;;0.55;0.55;;;23.10;99.90;;;;;;5122161;27;20136;-76
2023/08/13 11:10:49;;;;;;;0.13;0.13;;;23.40;99.90;;;;;;5122932;27;20047;-76
2023/08/13 11:13:15;;;;;;;0.30;0.30;;;23.70;99.90;;;;;;5117989;27;20039;-75
2023/08/13 11:15:55;;;;;;;0.30;0.30;;;23.70;99.90;;;;;;5122118;27;20876;-75
2023/08/13 11:18:21;;;;;;;0.30;0.30;;;23.60;99.90;;;;;;5120632;27;20042;-76
2023/08/13 11:20:48;;;;;;;0.20;0.20;;;23.50;99.90;;;;;;5112961;27;20599;-76
2023/08/13 11:23:18;;;;;;;0.70;0.70;;;23.40;99.90;;;;;;5120878;27;20181;-75
2023/08/13 11:25:49;;;;;;;0.40;0.40;;;23.30;99.90;;;;;;5123535;27;20114;-75
2023/08/13 11:28:19;;;;;;;0.20;0.20;;;23.30;99.90;;;;;;5122893;27;20067;-75
2023/08/13 11:30:44;;;;;;;0.30;0.30;;;23.40;99.90;;;;;;5121790;27;20573;-75
2023/08/13 11:33:10;;;;;;;0.20;0.20;;;23.70;99.90;;;;;;5119155;27;20051;-74
2023/08/13 11:35:37;;;;;;;0.45;0.45;;;24.10;99.90;;;;;;5120641;27;20492;-75
2023/08/13 11:38:03;;;;;;;0.10;0.10;;;24.30;99.90;;;;;;5118766;27;20039;-75
2023/08/13 11:40:29;;;;;;;0.30;0.30;;;24.30;99.90;;;;;;5121055;27;20126;-74
2023/08/13 11:42:59;;;;;;;0.20;0.20;;;24.20;99.90;;;;;;5115686;27;20043;-75
2023/08/13 11:45:27;;;;;;;0.10;0.10;;;24.10;99.90;;;;;;5116266;27;20047;-75
2023/08/13 11:48:18;;;;;;;0.20;0.20;;;24.10;99.90;;;;;;5118720;27;20761;-74
2023/08/13 11:50:55;;;;;;;0.20;0.20;;;24.20;99.90;;;;;;5120213;27;20146;-75
2023/08/13 11:53:21;;;;;;;0.55;0.55;;;24.30;99.90;;;;;;5116225;27;20056;-75
2023/08/13 11:55:48;;;;;;;0.30;0.30;;;24.10;99.90;;;;;;5111912;27;20043;-75
2023/08/13 11:58:17;;;;;;;0.30;0.30;;;24.10;99.90;;;;;;5118873;27;20035;-75
2023/08/13 12:00:44;;;;;;;0.30;0.30;;;24.00;99.90;;;;;;5115750;27;20035;-75
2023/08/13 12:03:13;;;;;;;0.10;0.10;;;23.90;99.90;;;;;;5125480;27;20137;-75
2023/08/13 12:05:39;;;;;;;0.20;0.20;;;23.90;99.90;;;;;;5128802;27;20188;-75
2023/08/13 12:08:09;;;;;;;0.20;0.20;;;24.00;99.90;;;;;;5122576;27;20096;-75
2023/08/13 12:10:35;;;;;;;0.20;0.20;;;24.10;99.90;;;;;;5125372;28;20381;-76
2023/08/13 12:13:01;;;;;;;0.68;0.68;;;24.20;99.90;;;;;;5124575;27;20047;-76
2023/08/13 12:15:29;;;;;;;0.30;0.30;;;24.30;99.90;;;;;;5126671;28;20050;-75
2023/08/13 12:17:57;;;;;;;0.80;0.38;;;24.20;99.90;;;;;;5126450;28;20039;-76
2023/08/13 12:20:23;;;;;;;0.22;0.22;;;24.20;99.90;;;;;;5122011;28;20051;-75
2023/08/13 12:22:49;;;;;;;0.20;0.20;;;24.10;99.90;;;;;;5125220;28;20576;-76
2023/08/13 12:25:15;;;;;;;0.17;0.17;;;23.80;99.90;;;;;;5121215;28;20047;-75
2023/08/13 12:27:43;;;;;;;0.40;0.40;;;23.50;99.90;;;;;;5122958;28;20126;-76
2023/08/13 12:30:09;;;;;;;0.30;0.30;;;23.30;99.90;;;;;;5125574;28;20062;-76
2023/08/13 12:32:35;;;;;;;0.22;0.22;;;23.00;99.90;;;;;;5125543;28;20151;-75
2023/08/13 12:35:01;;;;;;;0.22;0.22;;;22.80;99.90;;;;;;5121803;28;20081;-75
2023/08/13 12:37:27;;;;;;;0.20;0.20;;;22.60;99.90;;;;;;5124904;28;20078;-74
2023/08/13 12:39:53;;;;;;;0.50;0.50;;;22.40;99.90;;;;;;5127146;28;20044;-75
2023/08/13 12:42:19;;;;;;;0.57;0.57;;;22.60;99.90;;;;;;5116924;27;20712;-75
2023/08/13 12:44:45;;;;;;;0.55;0.55;;;22.30;99.90;;;;;;5126133;27;20103;-76
2023/08/13 12:47:11;;;;;;;0.20;0.20;;;22.40;99.90;;;;;;5124046;27;20293;-75
2023/08/13 12:49:36;;;;;;;0.10;0.10;;;22.80;99.90;;;;;;5122288;27;20134;-76
2023/08/13 12:52:02;;;;;;;0.10;0.10;;;22.80;99.90;;;;;;5128361;27;20058;-75
2023/08/13 12:54:28;;;;;;;0.40;0.40;;;22.90;99.90;;;;;;5127848;27;20468;-75
2023/08/13 12:56:54;;;;;;;0.25;0.25;;;23.40;99.90;;;;;;5127773;27;20054;-75
2023/08/13 12:59:20;;;;;;;0.73;0.70;;;23.50;99.90;;;;;;5129443;27;20611;-75
2023/08/13 13:01:46;;;;;;;0.32;0.32;;;23.40;99.90;;;;;;5129334;27;20130;-77
2023/08/13 13:04:12;;;;;;;0.55;0.55;;;23.20;99.90;;;;;;5126159;27;20388;-75
2023/08/13 13:06:40;;;;;;;0.45;0.45;;;23.50;99.90;;;;;;5126253;27;20031;-76